sensor_id;sensor_type;location;lat;lon;timestamp;temperature;humidity
13686;DHT22;6915;48.296;8.874;2023-05-10T00:18:17;12.70;99.90
13686;DHT22;6915;48.296;8.874;2023-05-10T00:20:46;12.70;99.90
13686;DHT22;6915;48.296;8.874;2023-05-10T00:23:15;12.70;99.90
13686;DHT22;6915;48.296;8.874;2023-05-10T00:25:44;12.60;99.90
13686;DHT22;6915;48.296;8.874;2023-05-10T00:28:13;12.60;99.90
13686;DHT22;6915;48.296;8.874;2023-05-10T00:30:41;12.60;99.90
13686;DHT22;6915;48.296;8.874;2023-05-10T00:33:10;12.60;99.90
13686;DHT22;6915;48.296;8.874;2023-05-10T00:35:40;12.50;99.90
13686;DHT22;6915;48.296;8.874;2023-05-10T00:38:09;12.50;99.90
13686;DHT22;6915;48.296;8.874;2023-05-10T00:40:38;12.70;99.90
13686;DHT22;6915;48.296;8.874;2023-05-10T00:43:06;12.40;99.90
13686;DHT22;6915;48.296;8.874;2023-05-10T00:45:36;12.40;99.90
13686;DHT22;6915;48.296;8.874;2023-05-10T00:48:06;12.40;99.90
13686;DHT22;6915;48.296;8.874;2023-05-10T00:50:35;12.40;99.90
13686;DHT22;6915;48.296;8.874;2023-05-10T00:53:05;12.30;99.90
13686;DHT22;6915;48.296;8.874;2023-05-10T00:55:34;12.30;99.90
13686;DHT22;6915;48.296;8.874;2023-05-10T00:58:03;12.20;99.90
13686;DHT22;6915;48.296;8.874;2023-05-10T01:00:34;12.20;99.90
13686;DHT22;6915;48.296;8.874;2023-05-10T01:03:04;12.20;99.90
13686;DHT22;6915;48.296;8.874;2023-05-10T01:05:33;12.20;99.90
13686;DHT22;6915;48.296;8.874;2023-05-10T01:08:02;12.10;99.90
13686;DHT22;6915;48.296;8.874;2023-05-10T01:10:32;12.10;99.90
13686;DHT22;6915;48.296;8.874;2023-05-10T01:13:01;12.20;99.90
13686;DHT22;6915;48.296;8.874;2023-05-10T01:15:33;12.20;99.90
13686;DHT22;6915;48.296;8.874;2023-05-10T01:18:02;12.20;99.90
13686;DHT22;6915;48.296;8.874;2023-05-10T01:20:35;12.20;99.90
13686;DHT22;6915;48.296;8.874;2023-05-10T01:23:16;12.20;99.90
13686;DHT22;6915;48.296;8.874;2023-05-10T01:26:16;12.30;99.90
13686;DHT22;6915;48.296;8.874;2023-05-10T01:32:20;12.30;99.90
13686;DHT22;6915;48.296;8.874;2023-05-10T01:34:56;12.20;99.90
13686;DHT22;6915;48.296;8.874;2023-05-10T01:37:36;12.20;99.90
13686;DHT22;6915;48.296;8.874;2023-05-10T01:40:11;12.20;99.90
13686;DHT22;6915;48.296;8.874;2023-05-10T01:42:46;12.20;99.90
13686;DHT22;6915;48.296;8.874;2023-05-10T01:45:18;12.20;99.90
13686;DHT22;6915;48.296;8.874;2023-05-10T01:47:53;12.20;99.90
13686;DHT22;6915;48.296;8.874;2023-05-10T01:50:24;12.20;99.90
13686;DHT22;6915;48.296;8.874;2023-05-10T01:52:58;12.20;99.90
13686;DHT22;6915;48.296;8.874;2023-05-10T01:55:32;12.10;99.90
13686;DHT22;6915;48.296;8.874;2023-05-10T01:58:05;12.00;99.90
13686;DHT22;6915;48.296;8.874;2023-05-10T02:00:37;12.00;99.90
13686;DHT22;6915;48.296;8.874;2023-05-10T02:03:12;12.00;99.90
13686;DHT22;6915;48.296;8.874;2023-05-10T02:05:43;12.00;99.90
13686;DHT22;6915;48.296;8.874;2023-05-10T02:08:15;11.80;99.90
13686;DHT22;6915;48.296;8.874;2023-05-10T02:10:46;11.90;99.90
13686;DHT22;6915;48.296;8.874;2023-05-10T02:13:18;11.90;99.90
13686;DHT22;6915;48.296;8.874;2023-05-10T02:15:48;11.90;99.90
13686;DHT22;6915;48.296;8.874;2023-05-10T02:18:20;11.80;99.90
13686;DHT22;6915;48.296;8.874;2023-05-10T02:20:50;11.80;99.90
13686;DHT22;6915;48.296;8.874;2023-05-10T02:23:21;11.80;99.90
13686;DHT22;6915;48.296;8.874;2023-05-10T02:25:53;12.00;99.90
13686;DHT22;6915;48.296;8.874;2023-05-10T02:28:23;11.90;99.90
13686;DHT22;6915;48.296;8.874;2023-05-10T02:30:52;11.80;99.90
13686;DHT22;6915;48.296;8.874;2023-05-10T02:33:23;11.80;99.90
13686;DHT22;6915;48.296;8.874;2023-05-10T02:35:52;11.80;99.90
13686;DHT22;6915;48.296;8.874;2023-05-10T02:38:22;11.90;99.90
13686;DHT22;6915;48.296;8.874;2023-05-10T02:40:52;11.90;99.90
13686;DHT22;6915;48.296;8.874;2023-05-10T02:43:24;11.80;99.90
13686;DHT22;6915;48.296;8.874;2023-05-10T02:45:54;11.90;99.90
13686;DHT22;6915;48.296;8.874;2023-05-10T02:48:24;11.90;99.90
13686;DHT22;6915;48.296;8.874;2023-05-10T02:50:55;11.90;99.90
13686;DHT22;6915;48.296;8.874;2023-05-10T02:53:29;11.70;99.90
13686;DHT22;6915;48.296;8.874;2023-05-10T02:56:01;11.80;99.90
13686;DHT22;6915;48.296;8.874;2023-05-10T02:58:34;11.70;99.90
13686;DHT22;6915;48.296;8.874;2023-05-10T03:01:02;11.70;99.90
13686;DHT22;6915;48.296;8.874;2023-05-10T03:03:33;11.70;99.90
13686;DHT22;6915;48.296;8.874;2023-05-10T03:06:01;11.70;99.90
13686;DHT22;6915;48.296;8.874;2023-05-10T03:08:30;11.70;99.90
13686;DHT22;6915;48.296;8.874;2023-05-10T03:11:12;11.70;99.90
13686;DHT22;6915;48.296;8.874;2023-05-10T03:13:49;11.70;99.90
13686;DHT22;6915;48.296;8.874;2023-05-10T03:16:24;11.70;99.90
13686;DHT22;6915;48.296;8.874;2023-05-10T03:18:59;11.70;99.90
13686;DHT22;6915;48.296;8.874;2023-05-10T03:21:31;11.70;99.90
13686;DHT22;6915;48.296;8.874;2023-05-10T03:24:03;11.70;99.90
13686;DHT22;6915;48.296;8.874;2023-05-10T03:26:33;11.70;99.90
13686;DHT22;6915;48.296;8.874;2023-05-10T03:29:03;11.60;99.90
13686;DHT22;6915;48.296;8.874;2023-05-10T03:31:32;11.60;99.90
13686;DHT22;6915;48.296;8.874;2023-05-10T03:34:02;11.50;99.90
13686;DHT22;6915;48.296;8.874;2023-05-10T03:36:31;11.60;99.90
13686;DHT22;6915;48.296;8.874;2023-05-10T03:39:00;11.50;99.90
13686;DHT22;6915;48.296;8.874;2023-05-10T03:41:28;11.60;99.90
13686;DHT22;6915;48.296;8.874;2023-05-10T03:43:57;11.60;99.90
13686;DHT22;6915;48.296;8.874;2023-05-10T03:46:25;11.60;99.90
13686;DHT22;6915;48.296;8.874;2023-05-10T03:48:54;11.50;99.90
13686;DHT22;6915;48.296;8.874;2023-05-10T03:51:24;11.50;99.90
13686;DHT22;6915;48.296;8.874;2023-05-10T03:53:55;11.40;99.90
13686;DHT22;6915;48.296;8.874;2023-05-10T03:56:23;11.40;99.90
13686;DHT22;6915;48.296;8.874;2023-05-10T03:58:52;11.40;99.90
13686;DHT22;6915;48.296;8.874;2023-05-10T04:01:20;11.40;99.90
13686;DHT22;6915;48.296;8.874;2023-05-10T04:03:49;11.40;99.90
13686;DHT22;6915;48.296;8.874;2023-05-10T04:06:18;11.40;99.90
13686;DHT22;6915;48.296;8.874;2023-05-10T04:08:48;11.40;99.90
13686;DHT22;6915;48.296;8.874;2023-05-10T04:11:19;11.50;99.90
13686;DHT22;6915;48.296;8.874;2023-05-10T04:13:49;11.50;99.90
13686;DHT22;6915;48.296;8.874;2023-05-10T04:16:21;11.50;99.90
13686;DHT22;6915;48.296;8.874;2023-05-10T04:18:49;11.40;99.90
13686;DHT22;6915;48.296;8.874;2023-05-10T04:21:18;11.40;99.90
13686;DHT22;6915;48.296;8.874;2023-05-10T04:23:52;11.50;99.90
13686;DHT22;6915;48.296;8.874;2023-05-10T04:26:24;11.50;99.90
13686;DHT22;6915;48.296;8.874;2023-05-10T04:28:54;11.50;99.90
13686;DHT22;6915;48.296;8.874;2023-05-10T04:31:23;11.60;99.90
13686;DHT22;6915;48.296;8.874;2023-05-10T04:33:51;11.60;99.90
13686;DHT22;6915;48.296;8.874;2023-05-10T04:36:20;11.60;99.90
13686;DHT22;6915;48.296;8.874;2023-05-10T04:38:50;11.60;99.90
13686;DHT22;6915;48.296;8.874;2023-05-10T04:41:19;11.60;99.90
13686;DHT22;6915;48.296;8.874;2023-05-10T04:43:48;11.60;99.90
13686;DHT22;6915;48.296;8.874;2023-05-10T04:46:17;11.60;99.90
13686;DHT22;6915;48.296;8.874;2023-05-10T04:48:46;11.60;99.90
13686;DHT22;6915;48.296;8.874;2023-05-10T04:51:14;11.70;99.90
13686;DHT22;6915;48.296;8.874;2023-05-10T04:53:43;11.70;99.90
13686;DHT22;6915;48.296;8.874;2023-05-10T04:56:13;11.70;99.90
13686;DHT22;6915;48.296;8.874;2023-05-10T04:58:43;11.80;99.90
13686;DHT22;6915;48.296;8.874;2023-05-10T05:01:11;11.70;99.90
13686;DHT22;6915;48.296;8.874;2023-05-10T05:03:42;11.70;99.90
13686;DHT22;6915;48.296;8.874;2023-05-10T05:06:10;11.60;99.90
13686;DHT22;6915;48.296;8.874;2023-05-10T05:08:39;11.70;99.90
13686;DHT22;6915;48.296;8.874;2023-05-10T05:11:08;11.70;99.90
13686;DHT22;6915;48.296;8.874;2023-05-10T05:13:38;11.80;99.90
13686;DHT22;6915;48.296;8.874;2023-05-10T05:16:07;11.80;99.90
13686;DHT22;6915;48.296;8.874;2023-05-10T05:18:36;11.80;99.90
13686;DHT22;6915;48.296;8.874;2023-05-10T05:21:12;11.90;99.90
13686;DHT22;6915;48.296;8.874;2023-05-10T05:23:41;11.90;99.90
13686;DHT22;6915;48.296;8.874;2023-05-10T05:26:10;12.00;99.90
13686;DHT22;6915;48.296;8.874;2023-05-10T05:28:41;12.00;99.90
13686;DHT22;6915;48.296;8.874;2023-05-10T05:31:10;12.00;99.90
13686;DHT22;6915;48.296;8.874;2023-05-10T05:33:40;12.00;99.90
13686;DHT22;6915;48.296;8.874;2023-05-10T05:36:09;12.10;99.90
13686;DHT22;6915;48.296;8.874;2023-05-10T05:38:38;12.10;99.90
13686;DHT22;6915;48.296;8.874;2023-05-10T05:41:07;12.10;99.90
13686;DHT22;6915;48.296;8.874;2023-05-10T05:43:35;12.10;99.90
13686;DHT22;6915;48.296;8.874;2023-05-10T05:46:05;12.10;99.90
13686;DHT22;6915;48.296;8.874;2023-05-10T05:48:34;12.20;99.90
13686;DHT22;6915;48.296;8.874;2023-05-10T05:51:03;12.30;99.90
13686;DHT22;6915;48.296;8.874;2023-05-10T05:53:32;12.20;99.90
13686;DHT22;6915;48.296;8.874;2023-05-10T05:56:00;12.20;99.90
13686;DHT22;6915;48.296;8.874;2023-05-10T05:58:30;12.20;99.90
13686;DHT22;6915;48.296;8.874;2023-05-10T06:00:59;12.20;99.90
13686;DHT22;6915;48.296;8.874;2023-05-10T06:03:29;12.30;99.90
13686;DHT22;6915;48.296;8.874;2023-05-10T06:05:58;12.40;99.90
13686;DHT22;6915;48.296;8.874;2023-05-10T06:08:27;12.40;99.90
13686;DHT22;6915;48.296;8.874;2023-05-10T06:10:56;12.50;99.90
13686;DHT22;6915;48.296;8.874;2023-05-10T06:13:25;12.50;99.90
13686;DHT22;6915;48.296;8.874;2023-05-10T06:15:57;12.50;99.90
13686;DHT22;6915;48.296;8.874;2023-05-10T06:18:26;12.60;99.90
13686;DHT22;6915;48.296;8.874;2023-05-10T06:20:56;12.60;99.90
13686;DHT22;6915;48.296;8.874;2023-05-10T06:23:25;12.60;99.90
13686;DHT22;6915;48.296;8.874;2023-05-10T06:25:54;12.50;99.90
13686;DHT22;6915;48.296;8.874;2023-05-10T06:28:22;12.50;99.90
13686;DHT22;6915;48.296;8.874;2023-05-10T06:30:51;12.60;99.90
13686;DHT22;6915;48.296;8.874;2023-05-10T06:33:20;12.60;99.90
13686;DHT22;6915;48.296;8.874;2023-05-10T06:35:49;12.60;99.90
13686;DHT22;6915;48.296;8.874;2023-05-10T06:38:19;12.60;99.90
13686;DHT22;6915;48.296;8.874;2023-05-10T06:40:48;12.60;99.90
13686;DHT22;6915;48.296;8.874;2023-05-10T06:43:17;12.60;99.90
13686;DHT22;6915;48.296;8.874;2023-05-10T06:45:46;12.60;99.90
13686;DHT22;6915;48.296;8.874;2023-05-10T06:48:15;12.60;99.90
13686;DHT22;6915;48.296;8.874;2023-05-10T06:50:44;12.60;99.90
13686;DHT22;6915;48.296;8.874;2023-05-10T06:53:13;12.60;99.90
13686;DHT22;6915;48.296;8.874;2023-05-10T06:55:44;12.60;99.90
13686;DHT22;6915;48.296;8.874;2023-05-10T06:58:13;12.70;99.90
13686;DHT22;6915;48.296;8.874;2023-05-10T07:00:42;12.60;99.90
13686;DHT22;6915;48.296;8.874;2023-05-10T07:03:12;12.70;99.90
13686;DHT22;6915;48.296;8.874;2023-05-10T07:05:41;12.80;99.90
13686;DHT22;6915;48.296;8.874;2023-05-10T07:08:10;12.90;99.90
13686;DHT22;6915;48.296;8.874;2023-05-10T07:10:38;12.90;99.90
13686;DHT22;6915;48.296;8.874;2023-05-10T07:13:08;13.00;99.90
13686;DHT22;6915;48.296;8.874;2023-05-10T07:15:37;13.10;99.90
13686;DHT22;6915;48.296;8.874;2023-05-10T07:18:06;13.20;99.90
13686;DHT22;6915;48.296;8.874;2023-05-10T07:20:35;13.30;99.90
13686;DHT22;6915;48.296;8.874;2023-05-10T07:23:03;13.40;99.90
13686;DHT22;6915;48.296;8.874;2023-05-10T07:25:32;13.50;99.90
13686;DHT22;6915;48.296;8.874;2023-05-10T07:28:01;13.60;99.90
13686;DHT22;6915;48.296;8.874;2023-05-10T07:30:31;13.60;99.90
13686;DHT22;6915;48.296;8.874;2023-05-10T07:33:00;13.70;99.90
13686;DHT22;6915;48.296;8.874;2023-05-10T07:35:29;13.80;99.90
13686;DHT22;6915;48.296;8.874;2023-05-10T07:37:57;13.80;99.90
13686;DHT22;6915;48.296;8.874;2023-05-10T07:40:26;13.70;99.90
13686;DHT22;6915;48.296;8.874;2023-05-10T07:42:54;13.80;99.90
13686;DHT22;6915;48.296;8.874;2023-05-10T07:45:24;13.90;99.90
13686;DHT22;6915;48.296;8.874;2023-05-10T07:47:54;13.90;99.90
13686;DHT22;6915;48.296;8.874;2023-05-10T07:50:23;13.90;99.90
13686;DHT22;6915;48.296;8.874;2023-05-10T07:52:51;13.80;99.90
13686;DHT22;6915;48.296;8.874;2023-05-10T07:55:20;13.80;99.90
13686;DHT22;6915;48.296;8.874;2023-05-10T07:57:49;13.60;99.90
13686;DHT22;6915;48.296;8.874;2023-05-10T08:00:20;13.70;99.90
13686;DHT22;6915;48.296;8.874;2023-05-10T08:02:48;13.80;99.90
13686;DHT22;6915;48.296;8.874;2023-05-10T08:05:18;13.90;99.90
13686;DHT22;6915;48.296;8.874;2023-05-10T08:07:47;14.00;99.90
13686;DHT22;6915;48.296;8.874;2023-05-10T08:10:16;14.00;99.90
13686;DHT22;6915;48.296;8.874;2023-05-10T08:12:45;13.80;99.90
13686;DHT22;6915;48.296;8.874;2023-05-10T08:15:13;13.80;99.90
13686;DHT22;6915;48.296;8.874;2023-05-10T08:17:42;13.70;99.90
13686;DHT22;6915;48.296;8.874;2023-05-10T08:20:11;13.60;99.90
13686;DHT22;6915;48.296;8.874;2023-05-10T08:22:45;13.50;99.90
13686;DHT22;6915;48.296;8.874;2023-05-10T08:25:14;13.50;99.90
13686;DHT22;6915;48.296;8.874;2023-05-10T08:27:42;13.50;99.90
13686;DHT22;6915;48.296;8.874;2023-05-10T08:30:11;13.60;99.90
13686;DHT22;6915;48.296;8.874;2023-05-10T08:32:40;13.70;99.90
13686;DHT22;6915;48.296;8.874;2023-05-10T08:35:09;13.80;99.90
13686;DHT22;6915;48.296;8.874;2023-05-10T08:37:38;13.80;99.90
13686;DHT22;6915;48.296;8.874;2023-05-10T08:40:11;13.80;99.90
13686;DHT22;6915;48.296;8.874;2023-05-10T08:42:43;13.90;99.90
13686;DHT22;6915;48.296;8.874;2023-05-10T08:45:15;13.90;99.90
13686;DHT22;6915;48.296;8.874;2023-05-10T08:47:44;13.80;99.90
13686;DHT22;6915;48.296;8.874;2023-05-10T08:50:15;13.80;99.90
13686;DHT22;6915;48.296;8.874;2023-05-10T08:52:44;13.80;99.90
13686;DHT22;6915;48.296;8.874;2023-05-10T08:55:18;13.80;99.90
13686;DHT22;6915;48.296;8.874;2023-05-10T08:57:47;13.90;99.90
13686;DHT22;6915;48.296;8.874;2023-05-10T09:00:17;13.90;99.90
13686;DHT22;6915;48.296;8.874;2023-05-10T09:02:46;14.20;99.90
13686;DHT22;6915;48.296;8.874;2023-05-10T09:05:17;14.10;99.90
13686;DHT22;6915;48.296;8.874;2023-05-10T09:07:45;14.10;99.90
13686;DHT22;6915;48.296;8.874;2023-05-10T09:10:16;14.30;99.90
13686;DHT22;6915;48.296;8.874;2023-05-10T09:12:45;14.40;99.90
13686;DHT22;6915;48.296;8.874;2023-05-10T09:15:16;14.50;99.90
13686;DHT22;6915;48.296;8.874;2023-05-10T09:17:46;14.70;99.90
13686;DHT22;6915;48.296;8.874;2023-05-10T09:20:15;14.80;99.90
13686;DHT22;6915;48.296;8.874;2023-05-10T09:22:44;14.80;99.90
13686;DHT22;6915;48.296;8.874;2023-05-10T09:25:14;14.90;99.90
13686;DHT22;6915;48.296;8.874;2023-05-10T09:27:46;14.80;99.90
13686;DHT22;6915;48.296;8.874;2023-05-10T09:30:23;14.60;99.90
13686;DHT22;6915;48.296;8.874;2023-05-10T09:32:52;14.60;99.90
13686;DHT22;6915;48.296;8.874;2023-05-10T09:35:23;14.50;99.90
13686;DHT22;6915;48.296;8.874;2023-05-10T09:37:54;14.80;99.90
13686;DHT22;6915;48.296;8.874;2023-05-10T09:40:25;14.90;99.90
13686;DHT22;6915;48.296;8.874;2023-05-10T09:42:57;15.10;99.90
13686;DHT22;6915;48.296;8.874;2023-05-10T09:45:27;15.30;99.90
13686;DHT22;6915;48.296;8.874;2023-05-10T09:47:57;15.60;99.90
13686;DHT22;6915;48.296;8.874;2023-05-10T09:50:28;15.70;99.90
13686;DHT22;6915;48.296;8.874;2023-05-10T09:52:57;15.70;99.90
13686;DHT22;6915;48.296;8.874;2023-05-10T09:55:38;15.80;99.90
13686;DHT22;6915;48.296;8.874;2023-05-10T09:58:08;15.90;99.90
13686;DHT22;6915;48.296;8.874;2023-05-10T10:00:39;15.90;99.90
13686;DHT22;6915;48.296;8.874;2023-05-10T10:03:12;15.90;99.90
13686;DHT22;6915;48.296;8.874;2023-05-10T10:05:42;16.10;99.90
13686;DHT22;6915;48.296;8.874;2023-05-10T10:08:12;16.10;99.90
13686;DHT22;6915;48.296;8.874;2023-05-10T10:10:45;16.20;99.90
13686;DHT22;6915;48.296;8.874;2023-05-10T10:13:15;16.30;99.90
13686;DHT22;6915;48.296;8.874;2023-05-10T10:15:44;16.40;99.90
13686;DHT22;6915;48.296;8.874;2023-05-10T10:18:15;16.50;99.90
13686;DHT22;6915;48.296;8.874;2023-05-10T10:20:44;16.60;99.90
13686;DHT22;6915;48.296;8.874;2023-05-10T10:23:12;16.70;99.90
13686;DHT22;6915;48.296;8.874;2023-05-10T10:25:41;17.00;99.90
13686;DHT22;6915;48.296;8.874;2023-05-10T10:28:20;17.00;99.90
13686;DHT22;6915;48.296;8.874;2023-05-10T10:30:53;17.10;99.90
13686;DHT22;6915;48.296;8.874;2023-05-10T10:33:40;17.30;99.90
13686;DHT22;6915;48.296;8.874;2023-05-10T10:36:12;17.40;99.90
13686;DHT22;6915;48.296;8.874;2023-05-10T10:38:57;17.40;99.90
13686;DHT22;6915;48.296;8.874;2023-05-10T10:41:33;17.30;99.90
13686;DHT22;6915;48.296;8.874;2023-05-10T10:44:33;17.10;99.90
13686;DHT22;6915;48.296;8.874;2023-05-10T10:47:22;16.80;99.90
13686;DHT22;6915;48.296;8.874;2023-05-10T10:50:05;16.80;99.90
13686;DHT22;6915;48.296;8.874;2023-05-10T10:52:35;16.50;99.90
13686;DHT22;6915;48.296;8.874;2023-05-10T10:55:06;16.20;99.90
13686;DHT22;6915;48.296;8.874;2023-05-10T10:57:45;16.00;99.90
13686;DHT22;6915;48.296;8.874;2023-05-10T11:00:25;15.50;99.90
13686;DHT22;6915;48.296;8.874;2023-05-10T11:02:55;14.70;99.90
13686;DHT22;6915;48.296;8.874;2023-05-10T11:05:44;14.20;99.90
13686;DHT22;6915;48.296;8.874;2023-05-10T11:08:17;13.80;99.90
13686;DHT22;6915;48.296;8.874;2023-05-10T11:11:02;13.50;99.90
13686;DHT22;6915;48.296;8.874;2023-05-10T11:13:33;13.30;99.90
13686;DHT22;6915;48.296;8.874;2023-05-10T11:16:14;13.30;99.90
13686;DHT22;6915;48.296;8.874;2023-05-10T11:18:52;13.30;99.90
13686;DHT22;6915;48.296;8.874;2023-05-10T11:21:21;13.40;99.90
13686;DHT22;6915;48.296;8.874;2023-05-10T11:23:51;13.40;99.90
13686;DHT22;6915;48.296;8.874;2023-05-10T11:26:24;13.40;99.90
13686;DHT22;6915;48.296;8.874;2023-05-10T11:28:53;13.30;99.90
13686;DHT22;6915;48.296;8.874;2023-05-10T11:31:31;13.40;99.90
13686;DHT22;6915;48.296;8.874;2023-05-10T11:34:00;13.30;99.90
13686;DHT22;6915;48.296;8.874;2023-05-10T11:36:32;13.30;99.90
13686;DHT22;6915;48.296;8.874;2023-05-10T11:39:02;13.20;99.90
13686;DHT22;6915;48.296;8.874;2023-05-10T11:41:31;13.10;99.90
13686;DHT22;6915;48.296;8.874;2023-05-10T11:44:00;13.20;99.90
13686;DHT22;6915;48.296;8.874;2023-05-10T11:46:31;13.10;99.90
13686;DHT22;6915;48.296;8.874;2023-05-10T11:49:01;13.00;99.90
13686;DHT22;6915;48.296;8.874;2023-05-10T11:51:32;13.10;99.90
13686;DHT22;6915;48.296;8.874;2023-05-10T11:54:07;13.20;99.90
13686;DHT22;6915;48.296;8.874;2023-05-10T11:56:37;13.30;99.90
13686;DHT22;6915;48.296;8.874;2023-05-10T11:59:06;13.60;99.90
13686;DHT22;6915;48.296;8.874;2023-05-10T12:01:37;13.70;99.90
13686;DHT22;6915;48.296;8.874;2023-05-10T12:04:06;13.90;99.90
13686;DHT22;6915;48.296;8.874;2023-05-10T12:06:39;14.10;99.90
13686;DHT22;6915;48.296;8.874;2023-05-10T12:09:09;14.20;99.90
13686;DHT22;6915;48.296;8.874;2023-05-10T12:11:39;14.30;99.90
13686;DHT22;6915;48.296;8.874;2023-05-10T12:14:10;14.50;99.90
13686;DHT22;6915;48.296;8.874;2023-05-10T12:16:40;14.50;99.90
13686;DHT22;6915;48.296;8.874;2023-05-10T12:19:11;14.60;99.90
13686;DHT22;6915;48.296;8.874;2023-05-10T12:21:40;14.60;99.90
13686;DHT22;6915;48.296;8.874;2023-05-10T12:24:09;14.60;99.90
13686;DHT22;6915;48.296;8.874;2023-05-10T12:26:38;14.70;99.90
13686;DHT22;6915;48.296;8.874;2023-05-10T12:29:15;14.90;99.90
13686;DHT22;6915;48.296;8.874;2023-05-10T14:00:12;16.50;99.90
13686;DHT22;6915;48.296;8.874;2023-05-10T14:02:42;16.20;99.90
13686;DHT22;6915;48.296;8.874;2023-05-10T14:05:11;15.90;99.90
13686;DHT22;6915;48.296;8.874;2023-05-10T14:07:39;15.90;99.90
13686;DHT22;6915;48.296;8.874;2023-05-10T14:10:09;15.80;99.90
13686;DHT22;6915;48.296;8.874;2023-05-10T14:12:37;15.80;99.90
13686;DHT22;6915;48.296;8.874;2023-05-10T14:15:07;15.90;99.90
13686;DHT22;6915;48.296;8.874;2023-05-10T14:17:40;15.90;99.90
13686;DHT22;6915;48.296;8.874;2023-05-10T14:20:09;15.90;99.90
13686;DHT22;6915;48.296;8.874;2023-05-10T14:22:38;16.00;99.90
13686;DHT22;6915;48.296;8.874;2023-05-10T14:25:07;16.00;99.90
13686;DHT22;6915;48.296;8.874;2023-05-10T14:27:37;16.20;99.90
13686;DHT22;6915;48.296;8.874;2023-05-10T14:30:05;16.40;99.90
13686;DHT22;6915;48.296;8.874;2023-05-10T14:32:34;16.40;99.90
13686;DHT22;6915;48.296;8.874;2023-05-10T14:35:05;16.30;99.90
13686;DHT22;6915;48.296;8.874;2023-05-10T14:37:34;16.10;99.90
13686;DHT22;6915;48.296;8.874;2023-05-10T14:40:04;15.80;99.90
13686;DHT22;6915;48.296;8.874;2023-05-10T14:42:33;15.80;99.90
13686;DHT22;6915;48.296;8.874;2023-05-10T14:45:02;16.00;99.90
13686;DHT22;6915;48.296;8.874;2023-05-10T14:47:32;15.90;99.90
13686;DHT22;6915;48.296;8.874;2023-05-10T14:50:06;15.70;99.90
13686;DHT22;6915;48.296;8.874;2023-05-10T14:52:35;15.40;99.90
13686;DHT22;6915;48.296;8.874;2023-05-10T14:55:04;15.20;99.90
13686;DHT22;6915;48.296;8.874;2023-05-10T14:57:34;15.00;99.90
13686;DHT22;6915;48.296;8.874;2023-05-10T15:00:03;15.00;99.90
13686;DHT22;6915;48.296;8.874;2023-05-10T15:02:32;14.90;99.90
13686;DHT22;6915;48.296;8.874;2023-05-10T15:05:01;14.90;99.90
13686;DHT22;6915;48.296;8.874;2023-05-10T15:07:31;14.80;99.90
13686;DHT22;6915;48.296;8.874;2023-05-10T15:10:00;15.00;99.90
13686;DHT22;6915;48.296;8.874;2023-05-10T15:12:29;15.20;99.90
13686;DHT22;6915;48.296;8.874;2023-05-10T15:14:58;15.20;99.90
13686;DHT22;6915;48.296;8.874;2023-05-10T15:17:26;15.30;99.90
13686;DHT22;6915;48.296;8.874;2023-05-10T15:19:57;15.40;99.90
13686;DHT22;6915;48.296;8.874;2023-05-10T15:22:25;15.40;99.90
13686;DHT22;6915;48.296;8.874;2023-05-10T15:24:56;15.50;99.90
13686;DHT22;6915;48.296;8.874;2023-05-10T15:27:25;15.60;99.90
13686;DHT22;6915;48.296;8.874;2023-05-10T15:29:54;15.60;99.90
13686;DHT22;6915;48.296;8.874;2023-05-10T15:32:23;15.70;99.90
13686;DHT22;6915;48.296;8.874;2023-05-10T15:34:51;15.70;99.90
13686;DHT22;6915;48.296;8.874;2023-05-10T15:37:20;15.60;99.90
13686;DHT22;6915;48.296;8.874;2023-05-10T15:39:50;15.70;99.90
13686;DHT22;6915;48.296;8.874;2023-05-10T15:42:20;15.40;99.90
13686;DHT22;6915;48.296;8.874;2023-05-10T15:44:49;15.30;99.90
13686;DHT22;6915;48.296;8.874;2023-05-10T15:47:17;15.10;99.90
13686;DHT22;6915;48.296;8.874;2023-05-10T15:49:46;14.70;99.90
13686;DHT22;6915;48.296;8.874;2023-05-10T15:52:15;14.40;99.90
13686;DHT22;6915;48.296;8.874;2023-05-10T15:54:44;14.10;99.90
13686;DHT22;6915;48.296;8.874;2023-05-10T15:57:13;13.90;99.90
13686;DHT22;6915;48.296;8.874;2023-05-10T15:59:43;14.00;99.90
13686;DHT22;6915;48.296;8.874;2023-05-10T16:02:12;14.10;99.90
13686;DHT22;6915;48.296;8.874;2023-05-10T16:04:40;14.20;99.90
13686;DHT22;6915;48.296;8.874;2023-05-10T16:07:11;14.50;99.90
13686;DHT22;6915;48.296;8.874;2023-05-10T16:09:39;14.60;99.90
13686;DHT22;6915;48.296;8.874;2023-05-10T16:12:09;14.60;99.90
13686;DHT22;6915;48.296;8.874;2023-05-10T16:14:38;14.50;99.90
13686;DHT22;6915;48.296;8.874;2023-05-10T16:17:08;14.50;99.90
13686;DHT22;6915;48.296;8.874;2023-05-10T16:19:37;14.50;99.90
13686;DHT22;6915;48.296;8.874;2023-05-10T16:22:07;14.60;99.90
13686;DHT22;6915;48.296;8.874;2023-05-10T16:24:35;14.60;99.90
13686;DHT22;6915;48.296;8.874;2023-05-10T16:27:04;14.70;99.90
13686;DHT22;6915;48.296;8.874;2023-05-10T16:29:33;14.70;99.90
13686;DHT22;6915;48.296;8.874;2023-05-10T16:32:01;14.80;99.90
13686;DHT22;6915;48.296;8.874;2023-05-10T16:34:32;14.70;99.90
13686;DHT22;6915;48.296;8.874;2023-05-10T16:37:00;14.60;99.90
13686;DHT22;6915;48.296;8.874;2023-05-10T16:39:29;14.40;99.90
13686;DHT22;6915;48.296;8.874;2023-05-10T16:41:58;14.30;99.90
13686;DHT22;6915;48.296;8.874;2023-05-10T16:44:27;14.30;99.90
13686;DHT22;6915;48.296;8.874;2023-05-10T16:46:56;14.30;99.90
13686;DHT22;6915;48.296;8.874;2023-05-10T16:49:25;14.20;99.90
13686;DHT22;6915;48.296;8.874;2023-05-10T16:51:55;14.20;99.90
13686;DHT22;6915;48.296;8.874;2023-05-10T16:54:24;14.20;99.90
13686;DHT22;6915;48.296;8.874;2023-05-10T16:56:53;14.20;99.90
13686;DHT22;6915;48.296;8.874;2023-05-10T16:59:21;14.20;99.90
13686;DHT22;6915;48.296;8.874;2023-05-10T17:01:50;14.20;99.90
13686;DHT22;6915;48.296;8.874;2023-05-10T17:04:19;14.10;99.90
13686;DHT22;6915;48.296;8.874;2023-05-10T17:06:48;14.10;99.90
13686;DHT22;6915;48.296;8.874;2023-05-10T17:09:18;14.10;99.90
13686;DHT22;6915;48.296;8.874;2023-05-10T17:11:47;14.10;99.90
13686;DHT22;6915;48.296;8.874;2023-05-10T17:14:16;14.10;99.90
13686;DHT22;6915;48.296;8.874;2023-05-10T17:16:44;14.10;99.90
13686;DHT22;6915;48.296;8.874;2023-05-10T17:19:14;14.10;99.90
13686;DHT22;6915;48.296;8.874;2023-05-10T17:21:43;14.00;99.90
13686;DHT22;6915;48.296;8.874;2023-05-10T17:24:12;14.10;99.90
13686;DHT22;6915;48.296;8.874;2023-05-10T17:26:43;14.00;99.90
13686;DHT22;6915;48.296;8.874;2023-05-10T17:29:12;14.00;99.90
13686;DHT22;6915;48.296;8.874;2023-05-10T17:31:42;14.00;99.90
13686;DHT22;6915;48.296;8.874;2023-05-10T17:34:11;14.00;99.90
13686;DHT22;6915;48.296;8.874;2023-05-10T17:36:39;13.90;99.90
13686;DHT22;6915;48.296;8.874;2023-05-10T18:23:09;12.30;99.90
13686;DHT22;6915;48.296;8.874;2023-05-10T18:25:38;12.20;99.90
13686;DHT22;6915;48.296;8.874;2023-05-10T18:28:07;12.30;99.90
13686;DHT22;6915;48.296;8.874;2023-05-10T18:30:36;12.20;99.90
13686;DHT22;6915;48.296;8.874;2023-05-10T18:33:04;12.20;99.90
13686;DHT22;6915;48.296;8.874;2023-05-10T18:35:33;12.30;99.90
13686;DHT22;6915;48.296;8.874;2023-05-10T18:38:03;12.30;99.90